Ruskin, Florida
Current Conditions -  °F | °C
As of 3:58 PM on Wednesday 17 Dec 2014 (Local Time) from KMCF Reporting Station
Clear Clear  
Wind Chill: 73°   Ceiling: Unl
Heat Index: 73°   Visibility: 10mi
Dew Point: 56°   Wind: 7mph
Humidity: 56%   Direction: 300°WNW
Pressure: 30.12"   Gusts: NA
Location:  27.72°N, 82.43°W
Report Text: KMCF 172058Z AUTO 30006KT 10SM CLR 23/14 A3012 RMK AO2 SLP203 T02290136 56015 $
Loading
Personal Weather Stations






























Interactive Weather Map New forecast layout! Learn more

10-Day Weather Forecast

Advertisements
Track Severe Weather on mobile